Time;durP1;ratioP1;P1;durP2;ratioP2;P2;SDS_P1;SDS_P2;PMS_P1;PMS_P2;Temp;Humidity;BMP_temperature;BMP_pressure;BME280_temperature;BME280_humidity;BME280_pressure;Samples;Min_cycle;Max_cycle;Signal;HPM_P1;HPM_P2
2022/09/12 00:00:04;;;;;;;12.23;10.75;;;13.80;99.90;;;;;;4995527;28;20042;-73
2022/09/12 00:02:30;;;;;;;11.93;9.75;;;13.80;99.90;;;;;;5011546;28;20041;-73
2022/09/12 00:04:56;;;;;;;11.73;10.52;;;13.80;99.90;;;;;;4963607;28;20049;-73
2022/09/12 00:07:22;;;;;;;11.63;9.35;;;13.70;99.90;;;;;;5011447;28;20171;-73
2022/09/12 00:09:48;;;;;;;10.90;9.77;;;13.70;99.90;;;;;;5025881;28;20312;-73
2022/09/12 00:12:14;;;;;;;12.43;10.25;;;13.70;99.90;;;;;;5011030;28;20053;-73
2022/09/12 00:14:40;;;;;;;11.70;10.27;;;13.60;99.90;;;;;;4995601;28;20574;-73
2022/09/12 00:17:05;;;;;;;12.00;9.63;;;13.70;99.90;;;;;;5011822;28;20545;-73
2022/09/12 00:19:31;;;;;;;12.50;11.00;;;13.60;99.90;;;;;;5009933;28;20064;-73
2022/09/12 00:21:57;;;;;;;13.15;10.70;;;13.60;99.90;;;;;;4991673;28;20042;-72
2022/09/12 00:24:23;;;;;;;14.25;10.95;;;13.60;99.90;;;;;;4975444;28;20038;-73
2022/09/12 00:26:49;;;;;;;13.10;11.70;;;13.60;99.90;;;;;;4971524;28;20064;-73
2022/09/12 00:29:20;;;;;;;12.65;10.77;;;13.60;99.90;;;;;;5009979;28;20054;-73
2022/09/12 00:31:46;;;;;;;14.43;11.23;;;13.60;99.90;;;;;;5011253;28;20045;-73
2022/09/12 00:34:13;;;;;;;12.73;10.73;;;13.60;99.90;;;;;;4995274;28;20042;-73
2022/09/12 00:36:39;;;;;;;13.52;11.38;;;13.50;99.90;;;;;;4995517;28;20080;-73
2022/09/12 00:39:06;;;;;;;13.82;11.73;;;13.50;99.90;;;;;;5009675;28;20474;-73
2022/09/12 00:41:35;;;;;;;12.55;10.55;;;13.50;99.90;;;;;;5010549;28;20132;-72
2022/09/12 00:44:09;;;;;;;15.27;12.25;;;13.60;99.90;;;;;;5007399;28;20042;-73
2022/09/12 00:46:47;;;;;;;15.55;12.10;;;13.60;99.90;;;;;;5011841;28;20081;-73
2022/09/12 00:49:14;;;;;;;12.07;10.75;;;13.60;99.90;;;;;;5007254;28;20042;-73
2022/09/12 00:51:53;;;;;;;14.85;12.85;;;13.50;99.90;;;;;;5007822;28;20418;-73
2022/09/12 00:54:23;;;;;;;13.93;12.40;;;13.60;99.90;;;;;;5026012;28;20100;-73
2022/09/12 00:56:53;;;;;;;17.02;12.38;;;13.60;99.90;;;;;;5008153;28;20041;-73
2022/09/12 00:59:39;;;;;;;15.48;12.50;;;13.60;99.90;;;;;;4996929;28;20077;-73
2022/09/12 01:02:06;;;;;;;14.40;12.07;;;13.60;99.90;;;;;;4988794;28;20053;-73
2022/09/12 01:04:34;;;;;;;15.52;12.73;;;13.50;99.90;;;;;;4994579;28;20040;-73
2022/09/12 01:07:02;;;;;;;16.20;13.13;;;13.50;99.90;;;;;;5014892;28;20037;-73
2022/09/12 01:09:28;;;;;;;16.08;13.15;;;13.50;99.90;;;;;;4997874;28;20052;-73
2022/09/12 01:11:54;;;;;;;15.02;13.25;;;13.50;99.90;;;;;;5011253;28;20414;-73
2022/09/12 01:14:20;;;;;;;14.27;12.27;;;13.40;99.90;;;;;;4992407;28;20052;-73
2022/09/12 01:16:48;;;;;;;14.07;11.80;;;13.40;99.90;;;;;;4998549;28;20057;-73
2022/09/12 01:19:38;;;;;;;15.98;14.23;;;13.30;99.90;;;;;;4994232;28;20054;-73
2022/09/12 01:22:23;;;;;;;15.57;13.55;;;13.20;99.90;;;;;;5011104;28;20084;-73
2022/09/12 01:24:58;;;;;;;15.10;13.43;;;13.10;99.90;;;;;;4998291;28;20139;-73
2022/09/12 01:27:41;;;;;;;17.15;13.85;;;13.10;99.90;;;;;;5014827;28;20038;-73
2022/09/12 01:30:16;;;;;;;15.32;13.68;;;13.00;99.90;;;;;;5011402;28;20050;-73
2022/09/12 01:32:54;;;;;;;19.10;15.15;;;13.00;99.90;;;;;;5004515;28;20471;-73
2022/09/12 01:35:23;;;;;;;22.23;16.52;;;12.90;99.90;;;;;;4997866;28;20042;-73
2022/09/12 01:38:08;;;;;;;22.25;15.93;;;12.90;99.90;;;;;;5014331;28;20042;-73
2022/09/12 01:40:53;;;;;;;21.45;16.92;;;12.90;99.90;;;;;;5014369;28;20390;-73
2022/09/12 01:43:30;;;;;;;18.73;16.35;;;12.90;99.90;;;;;;5008132;28;20044;-73
2022/09/12 01:46:03;;;;;;;19.90;16.02;;;12.90;99.90;;;;;;5008609;28;20073;-73
2022/09/12 01:48:35;;;;;;;20.27;15.43;;;13.00;99.90;;;;;;4998031;28;20042;-73
2022/09/12 01:51:14;;;;;;;19.40;15.80;;;13.00;99.90;;;;;;4998782;28;20103;-74
2022/09/12 01:54:00;;;;;;;19.50;15.50;;;13.00;99.90;;;;;;4994149;28;20046;-73
2022/09/12 01:56:31;;;;;;;20.60;15.70;;;13.00;99.90;;;;;;5029665;28;20042;-73
2022/09/12 01:59:09;;;;;;;21.65;16.15;;;12.90;99.90;;;;;;5013148;28;20071;-73
2022/09/12 02:01:51;;;;;;;20.83;15.48;;;12.90;99.90;;;;;;4997972;28;20050;-73
2022/09/12 02:04:27;;;;;;;20.52;16.15;;;12.90;99.90;;;;;;5011395;28;20475;-73
2022/09/12 02:07:19;;;;;;;21.45;16.73;;;12.90;99.90;;;;;;5014076;28;20041;-73
2022/09/12 02:10:09;;;;;;;23.23;16.27;;;13.00;99.90;;;;;;4996832;28;20449;-73
2022/09/12 02:12:41;;;;;;;25.02;17.15;;;12.90;99.90;;;;;;5013140;28;20038;-73
2022/09/12 02:15:10;;;;;;;22.42;16.35;;;12.90;99.90;;;;;;5013350;28;20042;-73
2022/09/12 02:17:41;;;;;;;22.98;17.50;;;12.80;99.90;;;;;;5012551;28;20482;-73
2022/09/12 02:20:25;;;;;;;24.33;18.30;;;12.80;99.90;;;;;;5013545;28;20037;-73
2022/09/12 02:22:51;;;;;;;24.70;17.65;;;12.90;99.90;;;;;;5013891;28;20052;-72
2022/09/12 02:25:19;;;;;;;23.73;17.58;;;12.80;99.90;;;;;;4992702;28;20034;-73
2022/09/12 02:28:09;;;;;;;25.27;18.10;;;12.80;99.90;;;;;;4995813;28;20042;-73
2022/09/12 02:30:46;;;;;;;25.13;17.85;;;12.80;99.90;;;;;;5028876;28;20061;-73
2022/09/12 02:33:45;;;;;;;27.33;19.88;;;12.80;99.90;;;;;;5013545;28;20049;-73
2022/09/12 02:36:31;;;;;;;23.92;17.90;;;12.90;99.90;;;;;;4999017;28;20077;-73
2022/09/12 02:38:57;;;;;;;24.10;17.20;;;12.80;99.90;;;;;;5013126;28;20057;-73
2022/09/12 02:41:23;;;;;;;31.05;21.15;;;12.80;99.90;;;;;;4995487;28;20038;-72
2022/09/12 02:43:51;;;;;;;30.60;20.88;;;12.80;99.90;;;;;;5013420;28;20038;-72
2022/09/12 02:46:31;;;;;;;30.30;21.38;;;12.80;99.90;;;;;;5008754;28;20497;-72
2022/09/12 02:48:57;;;;;;;28.73;19.92;;;12.80;99.90;;;;;;5029100;28;20053;-72
2022/09/12 02:51:24;;;;;;;32.53;21.83;;;12.80;99.90;;;;;;4980705;28;20136;-72
2022/09/12 02:53:50;;;;;;;29.92;21.75;;;12.80;99.90;;;;;;5013103;28;20049;-73
2022/09/12 02:56:24;;;;;;;31.92;20.75;;;12.70;99.90;;;;;;4992235;28;20160;-73
2022/09/12 02:58:52;;;;;;;30.10;19.98;;;12.70;99.90;;;;;;4996772;28;20057;-72
2022/09/12 03:01:26;;;;;;;33.22;21.50;;;12.70;99.90;;;;;;5012605;28;20082;-72
2022/09/12 03:04:32;;;;;;;33.88;22.45;;;12.60;99.90;;;;;;5012789;28;20132;-72
2022/09/12 03:07:34;;;;;;;34.92;22.65;;;12.70;99.90;;;;;;5013954;28;20391;-73
2022/09/12 03:10:09;;;;;;;;;;;12.70;99.90;;;;;;4989205;28;20054;-72
2022/09/12 03:13:05;;;;;;;36.92;23.23;;;12.70;99.90;;;;;;5026139;28;20332;-72
2022/09/12 03:15:53;;;;;;;38.63;23.77;;;12.70;99.90;;;;;;4992934;28;20502;-73
2022/09/12 03:18:45;;;;;;;37.45;23.58;;;12.60;99.90;;;;;;5007044;28;20553;-72
2022/09/12 03:21:16;;;;;;;34.20;22.45;;;12.70;99.90;;;;;;5012809;28;20124;-72
2022/09/12 03:23:46;;;;;;;37.92;24.90;;;12.70;99.90;;;;;;4995843;28;20368;-72
2022/09/12 03:26:19;;;;;;;39.08;24.25;;;12.60;99.90;;;;;;4991668;28;20572;-72
2022/09/12 03:28:46;;;;;;;36.97;24.00;;;12.60;99.90;;;;;;4992319;28;20050;-72
2022/09/12 03:31:14;;;;;;;45.00;26.10;;;12.60;99.90;;;;;;4992676;28;20048;-72
2022/09/12 03:33:40;;;;;;;50.35;26.75;;;12.60;99.90;;;;;;4976766;28;20050;-72
2022/09/12 03:36:12;;;;;;;44.92;26.20;;;12.70;99.90;;;;;;4995031;28;20579;-72
2022/09/12 03:38:38;;;;;;;45.13;26.77;;;12.70;99.90;;;;;;4994406;28;20479;-72
2022/09/12 03:41:04;;;;;;;42.50;25.38;;;12.60;99.90;;;;;;4978931;28;20088;-72
2022/09/12 03:43:30;;;;;;;43.33;26.00;;;12.60;99.90;;;;;;4996810;28;20073;-72
2022/09/12 03:45:56;;;;;;;40.80;25.80;;;12.60;99.90;;;;;;4992993;28;20164;-72
2022/09/12 03:48:21;;;;;;;42.92;25.88;;;12.60;99.90;;;;;;5006620;28;20046;-72
2022/09/12 03:50:47;;;;;;;42.00;25.25;;;12.60;99.90;;;;;;5011815;28;20073;-72
2022/09/12 03:53:13;;;;;;;42.97;26.13;;;12.50;99.90;;;;;;4995430;28;20056;-72
2022/09/12 03:55:39;;;;;;;40.75;24.73;;;12.40;99.90;;;;;;5010668;28;20080;-72
2022/09/12 03:58:05;;;;;;;40.60;25.75;;;12.40;99.90;;;;;;4989345;28;20116;-72
2022/09/12 04:00:30;;;;;;;48.63;25.80;;;12.50;99.90;;;;;;5010967;28;20041;-72
2022/09/12 04:02:56;;;;;;;43.15;25.65;;;12.40;99.90;;;;;;5012115;28;20124;-72
2022/09/12 04:05:24;;;;;;;46.25;27.63;;;12.40;99.90;;;;;;4979626;28;20041;-72
2022/09/12 04:07:50;;;;;;;50.58;27.50;;;12.50;99.90;;;;;;4977987;28;20046;-72
2022/09/12 04:10:16;;;;;;;48.80;27.48;;;12.50;99.90;;;;;;4986437;28;20038;-72
2022/09/12 04:12:43;;;;;;;49.22;27.23;;;12.50;99.90;;;;;;4992432;28;20054;-72
2022/09/12 04:15:09;;;;;;;53.08;28.38;;;12.50;99.90;;;;;;4960082;28;20046;-72
2022/09/12 04:17:35;;;;;;;48.28;28.27;;;12.40;99.90;;;;;;4976148;28;20050;-72
2022/09/12 04:20:01;;;;;;;49.53;28.73;;;12.40;99.90;;;;;;5003836;28;20088;-72
2022/09/12 04:22:28;;;;;;;46.85;25.85;;;12.50;99.90;;;;;;4995452;28;20049;-72
2022/09/12 04:24:54;;;;;;;46.65;26.88;;;12.40;99.90;;;;;;4978314;28;20042;-72
2022/09/12 04:27:20;;;;;;;46.47;26.35;;;12.40;99.90;;;;;;4978868;28;20038;-72
2022/09/12 04:29:46;;;;;;;52.20;27.80;;;12.40;99.90;;;;;;4995377;28;20041;-71
2022/09/12 04:32:12;;;;;;;48.10;27.65;;;12.40;99.90;;;;;;5011751;28;20049;-71
2022/09/12 04:34:38;;;;;;;50.25;28.15;;;12.40;99.90;;;;;;4979148;28;20478;-72
2022/09/12 04:37:03;;;;;;;53.20;29.05;;;12.50;99.90;;;;;;5009318;28;20044;-72
2022/09/12 04:39:29;;;;;;;50.15;28.38;;;12.50;99.90;;;;;;5010606;28;20142;-72
2022/09/12 04:41:55;;;;;;;50.70;28.63;;;12.50;99.90;;;;;;4995726;28;20491;-71
2022/09/12 04:44:21;;;;;;;51.35;27.98;;;12.50;99.90;;;;;;4995386;28;20050;-71
2022/09/12 04:46:47;;;;;;;49.03;27.65;;;12.50;99.90;;;;;;5002812;28;20382;-72
2022/09/12 04:49:15;;;;;;;53.47;29.70;;;12.50;99.90;;;;;;5011508;28;20037;-72
2022/09/12 04:51:42;;;;;;;47.00;27.60;;;12.50;99.90;;;;;;5015050;28;20042;-72
2022/09/12 04:54:17;;;;;;;45.10;25.75;;;12.50;99.90;;;;;;4981681;28;20434;-72
2022/09/12 04:56:45;;;;;;;48.13;28.27;;;12.50;99.90;;;;;;5012389;28;20041;-72
2022/09/12 04:59:13;;;;;;;43.22;26.35;;;12.50;99.90;;;;;;4979052;28;20052;-71
2022/09/12 05:01:39;;;;;;;51.95;28.65;;;12.50;99.90;;;;;;4990438;28;20048;-72
2022/09/12 05:04:05;;;;;;;56.28;29.45;;;12.50;99.90;;;;;;4980514;28;20515;-71
2022/09/12 05:06:33;;;;;;;48.58;28.08;;;12.00;99.90;;;;;;5001131;28;20078;-71
2022/09/12 05:09:00;;;;;;;52.13;27.42;;;12.60;99.90;;;;;;4997935;28;20052;-71
2022/09/12 05:11:30;;;;;;;39.53;23.58;;;12.60;99.90;;;;;;5007339;28;20109;-71
2022/09/12 05:13:56;;;;;;;54.80;29.58;;;12.50;99.90;;;;;;4995684;28;20056;-72
2022/09/12 05:16:24;;;;;;;55.85;30.83;;;12.60;99.90;;;;;;4963906;28;20052;-72
2022/09/12 05:18:51;;;;;;;57.40;30.40;;;12.60;99.90;;;;;;4996546;28;20052;-71
2022/09/12 05:21:19;;;;;;;64.50;31.63;;;12.80;99.90;;;;;;5009120;28;20038;-71
2022/09/12 05:23:49;;;;;;;53.17;28.00;;;12.80;99.90;;;;;;5008261;28;20053;-71
2022/09/12 05:26:15;;;;;;;50.30;29.33;;;12.80;99.90;;;;;;4995138;28;20050;-72
2022/09/12 05:28:42;;;;;;;56.40;30.95;;;12.90;99.90;;;;;;4979218;28;20495;-72
2022/09/12 05:31:13;;;;;;;62.38;32.65;;;13.00;99.90;;;;;;4982318;28;20092;-72
2022/09/12 05:33:40;;;;;;;;;;;13.20;99.90;;;;;;5010825;28;20042;-72
2022/09/12 05:36:11;;;;;;;60.00;31.65;;;13.30;99.90;;;;;;5014673;28;19957;-73
2022/09/12 05:38:38;;;;;;;60.95;31.40;;;13.40;99.90;;;;;;5009652;28;20034;-72
2022/09/12 05:41:15;;;;;;;62.10;33.40;;;13.50;99.90;;;;;;4995620;28;20128;-72
2022/09/12 05:43:42;;;;;;;63.03;33.88;;;13.60;99.90;;;;;;5027420;28;20064;-72
2022/09/12 05:46:14;;;;;;;64.45;33.55;;;13.70;99.90;;;;;;4998228;28;20056;-72
2022/09/12 05:48:42;;;;;;;63.83;33.67;;;13.80;99.90;;;;;;5011124;28;20050;-71
2022/09/12 05:51:11;;;;;;;56.42;32.22;;;13.90;99.90;;;;;;4994495;28;20414;-71
2022/09/12 05:53:39;;;;;;;56.42;31.13;;;14.00;99.90;;;;;;5008112;28;20045;-72
2022/09/12 05:56:07;;;;;;;63.28;34.78;;;14.10;99.90;;;;;;4997993;28;20057;-71
2022/09/12 05:58:35;;;;;;;62.38;33.17;;;14.20;99.90;;;;;;5013805;28;20117;-72
2022/09/12 06:01:08;;;;;;;65.05;34.42;;;14.20;99.90;;;;;;5007234;28;20357;-71
2022/09/12 06:03:43;;;;;;;59.15;33.13;;;14.30;99.90;;;;;;5013053;28;20053;-71
2022/09/12 06:06:12;;;;;;;56.75;32.47;;;14.40;99.90;;;;;;5014345;28;20518;-71
2022/09/12 06:08:40;;;;;;;59.10;33.58;;;14.50;99.90;;;;;;5014191;28;20042;-71
2022/09/12 06:11:08;;;;;;;55.88;32.38;;;14.50;99.90;;;;;;4995556;28;20046;-72
2022/09/12 06:13:36;;;;;;;55.33;32.63;;;14.60;99.90;;;;;;4995656;28;20050;-71
2022/09/12 06:16:14;;;;;;;55.90;31.83;;;14.50;99.90;;;;;;5013298;28;20045;-71
2022/09/12 06:18:41;;;;;;;53.83;30.77;;;14.60;99.90;;;;;;5013938;28;20041;-72
2022/09/12 06:21:11;;;;;;;53.88;31.33;;;14.60;99.90;;;;;;5012326;28;20052;-72
2022/09/12 06:23:38;;;;;;;57.28;31.50;;;14.70;99.90;;;;;;5001288;28;20538;-72
2022/09/12 06:26:07;;;;;;;59.80;31.73;;;14.70;99.90;;;;;;5013965;28;20175;-71
2022/09/12 06:28:38;;;;;;;56.22;32.67;;;14.70;99.90;;;;;;4997659;28;20038;-72
2022/09/12 06:31:05;;;;;;;55.00;31.48;;;14.80;99.90;;;;;;5012617;28;20045;-72
2022/09/12 06:33:33;;;;;;;51.75;30.65;;;14.80;99.90;;;;;;4984960;28;20046;-72
2022/09/12 06:36:09;;;;;;;50.58;30.85;;;14.80;99.90;;;;;;4998606;28;20042;-72
2022/09/12 06:38:35;;;;;;;62.17;30.75;;;14.90;99.90;;;;;;4993505;28;20383;-72
2022/09/12 06:41:06;;;;;;;51.22;30.35;;;15.00;99.90;;;;;;4977911;28;20046;-72
2022/09/12 06:43:33;;;;;;;52.03;30.42;;;15.00;99.90;;;;;;5008781;28;20077;-72
2022/09/12 06:45:59;;;;;;;55.80;32.10;;;15.20;99.90;;;;;;4992321;28;20046;-72
2022/09/12 06:48:25;;;;;;;50.95;29.98;;;15.20;99.90;;;;;;4980830;28;20096;-72
2022/09/12 06:50:59;;;;;;;51.90;32.08;;;15.30;99.90;;;;;;5012852;28;20608;-72
2022/09/12 06:53:26;;;;;;;50.97;31.27;;;15.30;99.90;;;;;;4986071;28;20038;-72
2022/09/12 06:56:13;;;;;;;53.33;32.08;;;15.40;99.90;;;;;;4984198;28;20046;-72
2022/09/12 06:58:41;;;;;;;50.97;31.58;;;15.50;99.90;;;;;;5013138;28;20042;-72
2022/09/12 07:01:18;;;;;;;53.80;31.05;;;15.60;99.90;;;;;;4996219;28;20045;-72
2022/09/12 07:03:53;;;;;;;55.72;31.50;;;15.60;99.90;;;;;;5008949;28;20053;-72
2022/09/12 07:06:23;;;;;;;55.83;32.13;;;15.70;99.90;;;;;;5012414;28;20475;-72
2022/09/12 07:08:49;;;;;;;53.42;31.08;;;15.70;99.90;;;;;;4996438;28;20502;-72
2022/09/12 07:11:21;;;;;;;56.45;32.10;;;15.80;99.90;;;;;;5012403;28;20056;-72
2022/09/12 07:13:52;;;;;;;57.15;32.42;;;15.80;99.90;;;;;;5027112;28;20075;-72
2022/09/12 07:16:19;;;;;;;54.70;32.65;;;15.90;99.90;;;;;;5011150;28;20050;-72
2022/09/12 07:18:59;;;;;;;54.53;32.28;;;15.90;99.90;;;;;;4996525;28;20128;-72
2022/09/12 07:21:25;;;;;;;52.83;31.77;;;16.00;99.90;;;;;;5012891;28;20045;-73
2022/09/12 07:23:54;;;;;;;59.85;33.35;;;16.10;99.90;;;;;;4990774;28;20357;-73
2022/09/12 07:26:20;;;;;;;60.65;34.72;;;16.10;99.90;;;;;;4977023;28;20042;-72
2022/09/12 07:28:51;;;;;;;61.67;35.83;;;16.20;99.90;;;;;;4961077;28;20419;-73
2022/09/12 07:31:18;;;;;;;62.33;35.17;;;16.20;99.90;;;;;;5003414;28;20042;-73
2022/09/12 07:33:44;;;;;;;59.92;34.45;;;16.20;99.90;;;;;;4975341;28;20386;-73
2022/09/12 07:36:13;;;;;;;60.88;33.55;;;16.30;99.90;;;;;;5007115;28;20092;-73
2022/09/12 07:38:39;;;;;;;63.67;34.70;;;16.30;99.90;;;;;;4993839;28;20445;-73
2022/09/12 07:41:18;;;;;;;57.75;33.90;;;16.30;99.90;;;;;;4996284;28;20073;-72
2022/09/12 07:43:44;;;;;;;61.08;34.47;;;16.30;99.90;;;;;;4995761;28;20474;-72
2022/09/12 07:46:11;;;;;;;55.70;32.38;;;16.40;99.90;;;;;;5008833;28;20085;-72
2022/09/12 07:48:38;;;;;;;60.03;34.92;;;16.50;99.90;;;;;;4992194;28;20415;-72
2022/09/12 07:51:09;;;;;;;58.20;32.90;;;16.60;99.90;;;;;;4996002;28;20045;-72
2022/09/12 07:53:38;;;;;;;58.53;33.67;;;16.80;99.90;;;;;;5010457;28;20046;-73
2022/09/12 07:56:05;;;;;;;60.38;34.55;;;16.90;99.90;;;;;;4995103;28;20411;-73
2022/09/12 07:58:32;;;;;;;57.17;33.42;;;16.90;99.90;;;;;;4992561;28;20048;-73
2022/09/12 08:01:06;;;;;;;58.95;33.97;;;17.00;99.90;;;;;;4996395;28;20502;-73
2022/09/12 08:03:32;;;;;;;55.97;32.95;;;17.10;99.90;;;;;;4999655;28;20042;-73
2022/09/12 08:06:09;;;;;;;59.53;34.53;;;17.20;99.90;;;;;;5004432;28;20045;-73
2022/09/12 08:08:37;;;;;;;60.53;35.13;;;17.20;99.90;;;;;;4992268;28;20057;-73
2022/09/12 08:11:14;;;;;;;62.17;36.85;;;17.30;99.90;;;;;;4995555;28;20095;-73
2022/09/12 08:13:41;;;;;;;56.22;33.40;;;17.30;99.90;;;;;;5002328;28;20050;-73
2022/09/12 08:16:31;;;;;;;61.53;33.30;;;17.50;99.90;;;;;;4993820;28;20062;-74
2022/09/12 08:18:58;;;;;;;54.92;31.80;;;17.50;99.90;;;;;;5006160;28;20052;-74
2022/09/12 08:21:30;;;;;;;51.97;31.45;;;17.50;99.90;;;;;;5010457;28;20526;-74
2022/09/12 08:24:01;;;;;;;51.75;30.85;;;17.50;99.90;;;;;;4987790;28;20132;-73
2022/09/12 08:26:29;;;;;;;44.58;28.45;;;17.60;99.90;;;;;;4988522;28;20058;-74
2022/09/12 08:28:55;;;;;;;48.78;28.88;;;17.60;99.90;;;;;;5005828;28;20068;-74
2022/09/12 08:31:23;;;;;;;47.28;28.08;;;17.70;99.90;;;;;;4992452;28;20498;-74
2022/09/12 08:33:49;;;;;;;43.92;27.45;;;17.70;99.90;;;;;;5011297;28;20502;-74
2022/09/12 08:36:18;;;;;;;42.38;25.95;;;17.90;99.90;;;;;;5024049;28;20116;-74
2022/09/12 08:38:45;;;;;;;41.67;25.10;;;18.00;99.90;;;;;;5009077;28;20080;-73
2022/09/12 08:41:17;;;;;;;39.75;24.58;;;18.10;99.90;;;;;;5006551;28;20042;-73
2022/09/12 08:43:57;;;;;;;38.22;24.40;;;18.30;99.90;;;;;;4989429;28;20042;-72
2022/09/12 08:46:40;;;;;;;38.47;24.10;;;18.50;99.90;;;;;;4992322;28;20483;-73
2022/09/12 08:49:12;;;;;;;37.47;23.42;;;18.60;99.90;;;;;;5008598;28;20042;-73
2022/09/12 08:51:38;;;;;;;;;;;18.70;99.90;;;;;;4993468;28;20060;-73
2022/09/12 08:54:20;;;;;;;34.90;22.52;;;18.60;99.90;;;;;;5011682;28;19925;-73
2022/09/12 08:56:47;;;;;;;31.95;22.30;;;18.70;99.90;;;;;;5011887;28;20064;-73
2022/09/12 08:59:14;;;;;;;31.13;20.50;;;18.70;99.90;;;;;;5011057;28;20038;-73
2022/09/12 09:01:44;;;;;;;30.17;19.92;;;18.70;99.90;;;;;;5005484;28;20080;-73
2022/09/12 09:04:31;;;;;;;31.58;20.27;;;18.70;99.90;;;;;;4994849;28;20088;-73
2022/09/12 09:06:59;;;;;;;31.67;20.35;;;18.80;99.90;;;;;;5011581;28;20048;-73
2022/09/12 09:09:45;;;;;;;30.70;20.65;;;18.90;99.90;;;;;;5005847;28;20132;-73
2022/09/12 09:12:16;;;;;;;29.15;19.42;;;19.00;99.90;;;;;;5001312;28;20057;-73
2022/09/12 09:15:27;;;;;;;26.45;19.63;;;19.20;99.90;;;;;;5010384;28;20069;-73
2022/09/12 09:18:02;;;;;;;25.90;18.77;;;19.20;99.90;;;;;;5011483;28;20125;-73
2022/09/12 09:20:32;;;;;;;26.30;18.75;;;19.40;99.90;;;;;;4990708;28;20064;-74
2022/09/12 09:23:01;;;;;;;24.27;17.58;;;19.50;99.90;;;;;;4992581;28;20180;-74
2022/09/12 09:25:49;;;;;;;21.35;15.63;;;19.60;99.90;;;;;;4995202;28;20041;-73
2022/09/12 09:28:45;;;;;;;22.95;15.23;;;19.70;99.90;;;;;;5014716;28;20128;-73
2022/09/12 09:31:15;;;;;;;21.50;15.18;;;19.80;99.90;;;;;;5026286;28;20046;-73
2022/09/12 09:33:42;;;;;;;21.58;15.82;;;19.90;99.90;;;;;;5014346;28;20045;-72
2022/09/12 09:36:21;;;;;;;20.52;14.63;;;20.00;99.90;;;;;;4996982;28;20046;-73
2022/09/12 09:38:58;;;;;;;21.80;15.88;;;20.10;99.90;;;;;;4998128;28;20049;-72
2022/09/12 09:42:02;;;;;;;23.85;15.73;;;20.00;99.90;;;;;;5009382;28;20041;-72
2022/09/12 09:44:29;;;;;;;23.38;15.85;;;20.00;99.90;;;;;;5001324;28;20069;-72
2022/09/12 09:46:58;;;;;;;19.85;14.77;;;20.00;99.90;;;;;;4998306;28;20494;-71
2022/09/12 09:49:27;;;;;;;20.65;14.60;;;20.10;99.90;;;;;;4995611;28;20073;-72
2022/09/12 09:51:53;;;;;;;20.35;15.23;;;19.90;99.90;;;;;;5007379;28;20092;-72
2022/09/12 09:54:23;;;;;;;23.25;15.50;;;19.90;99.90;;;;;;4991061;28;20053;-72
2022/09/12 09:56:49;;;;;;;19.73;14.68;;;20.00;99.90;;;;;;5021243;28;20111;-72
2022/09/12 09:59:16;;;;;;;23.30;15.25;;;19.90;99.90;;;;;;4997000;28;20053;-73
2022/09/12 10:01:53;;;;;;;19.67;14.70;;;20.00;99.90;;;;;;4984005;28;20037;-72
2022/09/12 10:04:31;;;;;;;20.58;14.73;;;20.00;99.90;;;;;;5012295;28;20093;-73
2022/09/12 10:06:59;;;;;;;25.98;15.77;;;20.10;99.90;;;;;;5014230;28;20045;-72
2022/09/12 10:09:34;;;;;;;83.40;18.95;;;20.20;99.90;;;;;;5013648;28;20438;-72
2022/09/12 10:12:18;;;;;;;111.22;21.73;;;20.30;99.90;;;;;;4995624;28;20133;-72
2022/09/12 10:15:02;;;;;;;25.05;17.38;;;20.40;99.90;;;;;;4994220;28;20092;-72
2022/09/12 10:17:31;;;;;;;31.05;18.05;;;20.70;99.90;;;;;;5014044;28;20061;-72
2022/09/12 10:19:58;;;;;;;27.10;18.35;;;21.00;99.90;;;;;;5013199;28;20092;-72
2022/09/12 10:22:27;;;;;;;34.10;19.92;;;21.20;99.90;;;;;;5013196;28;20042;-72
2022/09/12 10:24:57;;;;;;;30.48;20.48;;;21.40;99.90;;;;;;5005974;28;20093;-73
2022/09/12 10:27:32;;;;;;;33.25;20.00;;;21.40;99.90;;;;;;4994485;28;20466;-72
2022/09/12 10:30:05;;;;;;;34.38;22.27;;;21.60;99.90;;;;;;4994262;28;20077;-72
2022/09/12 10:32:44;;;;;;;34.25;23.15;;;21.30;99.90;;;;;;4980912;28;20054;-72
2022/09/12 10:35:19;;;;;;;38.72;22.80;;;21.50;99.90;;;;;;4978074;28;20046;-72
2022/09/12 10:37:55;;;;;;;35.97;22.92;;;21.50;99.90;;;;;;4992713;28;20050;-72
2022/09/12 10:40:27;;;;;;;42.05;24.67;;;21.80;99.90;;;;;;5006247;28;20045;-72
2022/09/12 10:43:01;;;;;;;43.42;25.30;;;21.80;99.90;;;;;;5004866;28;20058;-72
2022/09/12 10:45:36;;;;;;;44.42;25.88;;;22.00;99.90;;;;;;4994000;28;20092;-72
2022/09/12 10:48:25;;;;;;;40.30;24.95;;;22.30;99.90;;;;;;4977771;28;20133;-72
2022/09/12 10:50:51;;;;;;;56.42;27.52;;;22.50;99.90;;;;;;5024120;28;20180;-72
2022/09/12 10:53:20;;;;;;;49.17;26.52;;;22.70;99.90;;;;;;4996747;28;20124;-72
2022/09/12 10:56:01;;;;;;;37.55;24.13;;;22.70;99.90;;;;;;5011914;28;20041;-72
2022/09/12 10:58:33;;;;;;;37.92;23.92;;;22.90;99.90;;;;;;5013319;28;20057;-72
2022/09/12 11:01:19;;;;;;;40.47;24.42;;;22.70;99.90;;;;;;5011527;28;20043;-72
2022/09/12 11:04:15;;;;;;;35.58;23.60;;;22.40;99.90;;;;;;5013352;28;20044;-72
2022/09/12 11:07:00;;;;;;;37.22;22.27;;;22.20;99.90;;;;;;5012757;28;20053;-72
2022/09/12 11:09:44;;;;;;;32.45;20.80;;;22.20;99.90;;;;;;4996714;28;20046;-71
2022/09/12 11:12:39;;;;;;;34.35;20.02;;;22.40;99.90;;;;;;4990494;28;20083;-72
2022/09/12 11:15:35;;;;;;;33.58;20.88;;;22.50;99.90;;;;;;4995282;28;20044;-72
2022/09/12 11:18:16;;;;;;;33.28;20.17;;;22.50;99.90;;;;;;5011621;28;20375;-72
2022/09/12 11:21:01;;;;;;;32.15;19.23;;;23.00;99.90;;;;;;4996103;28;20057;-73
2022/09/12 11:23:50;;;;;;;28.45;19.38;;;23.30;99.90;;;;;;5008803;28;20549;-73
2022/09/12 11:26:19;;;;;;;26.63;17.40;;;23.30;99.90;;;;;;5009700;28;20088;-72
2022/09/12 11:29:11;;;;;;;26.48;18.00;;;23.50;99.90;;;;;;5009995;28;20037;-72
2022/09/12 11:31:58;;;;;;;33.20;19.65;;;23.60;99.90;;;;;;5011193;28;20053;-72
2022/09/12 11:34:41;;;;;;;29.10;17.15;;;23.60;99.90;;;;;;5012678;28;20053;-72
2022/09/12 11:37:27;;;;;;;28.15;17.55;;;23.70;99.90;;;;;;5010658;28;20037;-72
2022/09/12 11:39:55;;;;;;;32.80;18.40;;;23.60;99.90;;;;;;5012714;28;20049;-72
2022/09/12 11:42:36;;;;;;;30.92;17.95;;;23.80;99.90;;;;;;5012754;28;20100;-72
2022/09/12 11:45:13;;;;;;;30.67;18.50;;;24.00;99.90;;;;;;4996348;28;20370;-72
2022/09/12 11:47:40;;;;;;;28.65;17.92;;;23.90;99.90;;;;;;5010108;28;20033;-72
2022/09/12 11:50:25;;;;;;;29.30;18.30;;;23.90;99.90;;;;;;5010409;28;20534;-72
2022/09/12 11:52:54;;;;;;;27.33;16.98;;;24.20;99.90;;;;;;5009631;28;20061;-72
2022/09/12 11:55:31;;;;;;;27.83;18.63;;;24.00;99.90;;;;;;5011684;28;20069;-71
2022/09/12 11:57:58;;;;;;;26.90;16.58;;;24.00;99.90;;;;;;4987748;28;20121;-71
2022/09/12 12:00:31;;;;;;;29.73;18.25;;;24.30;99.90;;;;;;4993474;28;20058;-72
2022/09/12 12:02:57;;;;;;;23.55;15.48;;;24.60;99.90;;;;;;4977523;28;20125;-72
2022/09/12 12:05:31;;;;;;;24.73;16.25;;;24.90;99.90;;;;;;5001899;28;20112;-71
2022/09/12 12:07:59;;;;;;;22.23;15.77;;;25.10;99.90;;;;;;5000047;28;20081;-72
2022/09/12 12:10:40;;;;;;;22.40;14.88;;;24.80;99.90;;;;;;5009248;28;20050;-72
2022/09/12 12:13:21;;;;;;;24.02;15.75;;;24.70;99.90;;;;;;5007905;28;20058;-72
2022/09/12 12:15:55;;;;;;;21.15;13.95;;;25.10;99.90;;;;;;4992378;28;20476;-72
2022/09/12 12:18:26;;;;;;;20.70;12.90;;;25.40;99.90;;;;;;4987259;28;20058;-72
2022/09/12 12:20:54;;;;;;;17.88;11.63;;;25.60;99.90;;;;;;5009267;28;20088;-72
2022/09/12 12:23:27;;;;;;;18.48;12.90;;;25.00;99.90;;;;;;5011264;28;20045;-72
2022/09/12 12:25:58;;;;;;;16.30;10.82;;;24.90;99.90;;;;;;5012111;28;20135;-72
2022/09/12 12:28:51;;;;;;;18.77;12.93;;;25.20;99.90;;;;;;5010497;28;20152;-72
2022/09/12 12:31:17;;;;;;;16.05;12.05;;;25.60;99.80;;;;;;5020198;28;20537;-73
2022/09/12 12:33:43;;;;;;;16.98;12.25;;;25.80;99.90;;;;;;4995769;28;20467;-72
2022/09/12 12:36:27;;;;;;;16.98;10.98;;;26.00;99.90;;;;;;5012100;28;20045;-72
2022/09/12 12:38:53;;;;;;;17.52;12.52;;;26.20;99.90;;;;;;4992886;28;20391;-73
2022/09/12 12:41:20;;;;;;;16.27;11.98;;;26.50;99.90;;;;;;4977365;28;20057;-72
2022/09/12 12:43:55;;;;;;;18.75;12.95;;;26.60;98.10;;;;;;5008909;28;20041;-72
2022/09/12 12:46:22;;;;;;;19.92;12.93;;;26.60;97.50;;;;;;5010627;28;20045;-72
2022/09/12 12:48:57;;;;;;;18.48;11.93;;;26.90;98.00;;;;;;5005883;28;20049;-73
2022/09/12 12:51:41;;;;;;;18.60;13.88;;;26.70;93.90;;;;;;5008925;28;20049;-72
2022/09/12 12:54:29;;;;;;;20.15;13.82;;;27.00;92.90;;;;;;5005990;28;20167;-73